Terminal Aerodrome Forecast
Issued by NWS Bismarck, ND

Home | Current Version | Previous Version | Graphics & Text | Print | Product List | Glossary On
Versions: 1 2 3 4 5 6 7 8 9 10 11 12 13 14 15 16 17 18 19 20 21 22 23
000
FTUS43 KBIS 120500 AAA
TAFBIS
TAF AMD
KBIS 120546Z 1206/1306 03005KT P6SM SCT080 OVC100
     FM121000 07003KT P6SM VCSH BKN080 OVC100
      TEMPO 1211/1214 11003KT -SHRA BKN060 OVC080
     FM121400 16006KT P6SM VCSH BKN080 BKN110
     FM121700 26007KT P6SM SCT080 SCT120
     FM122100 31008KT P6SM SCT110=

USA.gov is the U.S. government's official web portal to all federal, state and local government web resources and services.